sensor_id;sensor_type;location;lat;lon;timestamp;pressure;altitude;pressure_sealevel;temperature
80246;BMP280;69558;39.208;-77.226;2023-07-16T00:02:06;99647.38;;;25.58
80246;BMP280;69558;39.208;-77.226;2023-07-16T00:04:33;99648.75;;;25.60
80246;BMP280;69558;39.208;-77.226;2023-07-16T00:07:00;99651.41;;;25.60
80246;BMP280;69558;39.208;-77.226;2023-07-16T00:09:29;99644.22;;;25.61
80246;BMP280;69558;39.208;-77.226;2023-07-16T00:11:56;99643.66;;;25.59
80246;BMP280;69558;39.208;-77.226;2023-07-16T00:14:22;99644.22;;;25.61
80246;BMP280;69558;39.208;-77.226;2023-07-16T00:16:50;99634.38;;;25.56
80246;BMP280;69558;39.208;-77.226;2023-07-16T00:19:18;99616.22;;;25.48
80246;BMP280;69558;39.208;-77.226;2023-07-16T00:21:46;99631.75;;;25.61
80246;BMP280;69558;39.208;-77.226;2023-07-16T00:24:13;99634.69;;;25.60
80246;BMP280;69558;39.208;-77.226;2023-07-16T00:26:39;99636.50;;;25.59
80246;BMP280;69558;39.208;-77.226;2023-07-16T00:29:05;99638.34;;;25.59
80246;BMP280;69558;39.208;-77.226;2023-07-16T00:31:33;99631.75;;;25.61
80246;BMP280;69558;39.208;-77.226;2023-07-16T00:34:00;99627.16;;;25.52
80246;BMP280;69558;39.208;-77.226;2023-07-16T00:36:26;99643.44;;;25.60
80246;BMP280;69558;39.208;-77.226;2023-07-16T00:38:53;99636.22;;;25.56
80246;BMP280;69558;39.208;-77.226;2023-07-16T00:41:18;99638.91;;;25.61
80246;BMP280;69558;39.208;-77.226;2023-07-16T00:43:46;99640.78;;;25.60
80246;BMP280;69558;39.208;-77.226;2023-07-16T00:46:12;99641.56;;;25.61
80246;BMP280;69558;39.208;-77.226;2023-07-16T00:48:38;99643.44;;;25.60
80246;BMP280;69558;39.208;-77.226;2023-07-16T00:51:06;99633.56;;;25.56
80246;BMP280;69558;39.208;-77.226;2023-07-16T00:53:32;99630.91;;;25.56
80246;BMP280;69558;39.208;-77.226;2023-07-16T00:55:59;99642.63;;;25.60
80246;BMP280;69558;39.208;-77.226;2023-07-16T00:58:25;99648.47;;;25.62
80246;BMP280;69558;39.208;-77.226;2023-07-16T01:00:52;99640.78;;;25.60
80246;BMP280;69558;39.208;-77.226;2023-07-16T01:03:18;99650.59;;;25.60
80246;BMP280;69558;39.208;-77.226;2023-07-16T01:08:20;99653.00;;;25.61
80246;BMP280;69558;39.208;-77.226;2023-07-16T01:10:48;99660.94;;;25.61
80246;BMP280;69558;39.208;-77.226;2023-07-16T01:13:16;99660.41;;;25.59
80246;BMP280;69558;39.208;-77.226;2023-07-16T01:15:42;99658.28;;;25.56
80246;BMP280;69558;39.208;-77.226;2023-07-16T01:18:09;99668.38;;;25.59
80246;BMP280;69558;39.208;-77.226;2023-07-16T01:20:35;99655.31;;;25.53
80246;BMP280;69558;39.208;-77.226;2023-07-16T01:28:52;99660.16;;;25.61
80246;BMP280;69558;39.208;-77.226;2023-07-16T01:31:22;99656.72;;;25.60
80246;BMP280;69558;39.208;-77.226;2023-07-16T01:33:51;99638.25;;;25.49
80246;BMP280;69558;39.208;-77.226;2023-07-16T01:36:18;99647.94;;;25.60
80246;BMP280;69558;39.208;-77.226;2023-07-16T01:38:46;99651.94;;;25.62
80246;BMP280;69558;39.208;-77.226;2023-07-16T01:41:13;99648.22;;;25.63
80246;BMP280;69558;39.208;-77.226;2023-07-16T01:43:39;99641.31;;;25.62
80246;BMP280;69558;39.208;-77.226;2023-07-16T01:46:05;99650.88;;;25.63
80246;BMP280;69558;39.208;-77.226;2023-07-16T01:48:36;99651.13;;;25.62
80246;BMP280;69558;39.208;-77.226;2023-07-16T01:51:04;99645.56;;;25.63
80246;BMP280;69558;39.208;-77.226;2023-07-16T01:53:31;99640.00;;;25.65
80246;BMP280;69558;39.208;-77.226;2023-07-16T01:55:57;99631.75;;;25.61
80246;BMP280;69558;39.208;-77.226;2023-07-16T01:58:23;99622.41;;;25.59
80246;BMP280;69558;39.208;-77.226;2023-07-16T02:00:50;99633.31;;;25.57
80246;BMP280;69558;39.208;-77.226;2023-07-16T02:03:16;99643.44;;;25.60
80246;BMP280;69558;39.208;-77.226;2023-07-16T02:05:49;99661.50;;;25.63
80246;BMP280;69558;39.208;-77.226;2023-07-16T02:08:26;99669.72;;;25.62
80246;BMP280;69558;39.208;-77.226;2023-07-16T02:11:14;99669.69;;;25.57
80246;BMP280;69558;39.208;-77.226;2023-07-16T02:14:01;99677.44;;;25.63
80246;BMP280;69558;39.208;-77.226;2023-07-16T02:17:07;99682.75;;;25.63
80246;BMP280;69558;39.208;-77.226;2023-07-16T02:19:38;99698.41;;;25.60
80246;BMP280;69558;39.208;-77.226;2023-07-16T02:22:05;99713.81;;;25.63
80246;BMP280;69558;39.208;-77.226;2023-07-16T02:24:32;99745.22;;;25.66
80246;BMP280;69558;39.208;-77.226;2023-07-16T02:26:58;99744.41;;;25.65
80246;BMP280;69558;39.208;-77.226;2023-07-16T02:29:33;99743.84;;;25.63
80246;BMP280;69558;39.208;-77.226;2023-07-16T02:31:59;99752.63;;;25.64
80246;BMP280;69558;39.208;-77.226;2023-07-16T02:34:25;99772.00;;;25.64
80246;BMP280;69558;39.208;-77.226;2023-07-16T02:37:12;99745.84;;;25.51
80246;BMP280;69558;39.208;-77.226;2023-07-16T02:40:08;99770.66;;;25.62
80246;BMP280;69558;39.208;-77.226;2023-07-16T02:42:58;99801.00;;;25.66
80246;BMP280;69558;39.208;-77.226;2023-07-16T02:45:28;99808.41;;;25.64
80246;BMP280;69558;39.208;-77.226;2023-07-16T02:47:58;99808.13;;;25.60
80246;BMP280;69558;39.208;-77.226;2023-07-16T02:50:24;99780.88;;;25.48
80246;BMP280;69558;39.208;-77.226;2023-07-16T02:52:50;99790.59;;;25.64
80246;BMP280;69558;39.208;-77.226;2023-07-16T02:55:16;99778.38;;;25.63
80246;BMP280;69558;39.208;-77.226;2023-07-16T02:57:42;99747.03;;;25.60
80246;BMP280;69558;39.208;-77.226;2023-07-16T03:00:10;99725.72;;;25.55
80246;BMP280;69558;39.208;-77.226;2023-07-16T03:02:36;99730.31;;;25.65
80246;BMP280;69558;39.208;-77.226;2023-07-16T03:05:02;99738.03;;;25.66
80246;BMP280;69558;39.208;-77.226;2023-07-16T03:07:29;99721.72;;;25.58
80246;BMP280;69558;39.208;-77.226;2023-07-16T03:09:56;99710.91;;;25.64
80246;BMP280;69558;39.208;-77.226;2023-07-16T03:12:22;99691.44;;;25.54
80246;BMP280;69558;39.208;-77.226;2023-07-16T03:14:49;99695.53;;;25.66
80246;BMP280;69558;39.208;-77.226;2023-07-16T03:17:17;99689.44;;;25.66
80246;BMP280;69558;39.208;-77.226;2023-07-16T03:19:42;99686.78;;;25.66
80246;BMP280;69558;39.208;-77.226;2023-07-16T03:22:08;99673.72;;;25.64
80246;BMP280;69558;39.208;-77.226;2023-07-16T03:24:34;99674.53;;;25.65
80246;BMP280;69558;39.208;-77.226;2023-07-16T03:27:00;99626.81;;;25.43
80246;BMP280;69558;39.208;-77.226;2023-07-16T03:29:26;99661.25;;;25.65
80246;BMP280;69558;39.208;-77.226;2023-07-16T03:31:52;99649.03;;;25.64
80246;BMP280;69558;39.208;-77.226;2023-07-16T03:34:18;99657.78;;;25.64
80246;BMP280;69558;39.208;-77.226;2023-07-16T03:36:44;99636.16;;;25.51
80246;BMP280;69558;39.208;-77.226;2023-07-16T03:39:12;99644.22;;;25.61
80246;BMP280;69558;39.208;-77.226;2023-07-16T03:41:40;99633.84;;;25.59
80246;BMP280;69558;39.208;-77.226;2023-07-16T03:44:06;99640.81;;;25.65
80246;BMP280;69558;39.208;-77.226;2023-07-16T03:46:32;99646.13;;;25.65
80246;BMP280;69558;39.208;-77.226;2023-07-16T03:48:58;99636.81;;;25.68
80246;BMP280;69558;39.208;-77.226;2023-07-16T03:51:24;99626.44;;;25.61
80246;BMP280;69558;39.208;-77.226;2023-07-16T03:53:50;99613.13;;;25.56
80246;BMP280;69558;39.208;-77.226;2023-07-16T03:56:16;99630.19;;;25.65
80246;BMP280;69558;39.208;-77.226;2023-07-16T03:58:42;99635.50;;;25.65
80246;BMP280;69558;39.208;-77.226;2023-07-16T04:01:08;99652.47;;;25.64
80246;BMP280;69558;39.208;-77.226;2023-07-16T04:03:34;99637.03;;;25.56
80246;BMP280;69558;39.208;-77.226;2023-07-16T04:06:05;99654.63;;;25.67
80246;BMP280;69558;39.208;-77.226;2023-07-16T04:08:31;99651.97;;;25.67
80246;BMP280;69558;39.208;-77.226;2023-07-16T04:10:57;99661.81;;;25.67
80246;BMP280;69558;39.208;-77.226;2023-07-16T04:13:23;99668.19;;;25.66
80246;BMP280;69558;39.208;-77.226;2023-07-16T04:15:50;99669.72;;;25.62
80246;BMP280;69558;39.208;-77.226;2023-07-16T04:18:18;99672.06;;;25.58
80246;BMP280;69558;39.208;-77.226;2023-07-16T04:20:46;99676.88;;;25.56
80246;BMP280;69558;39.208;-77.226;2023-07-16T04:23:12;99664.59;;;25.50
80246;BMP280;69558;39.208;-77.226;2023-07-16T04:25:38;99686.16;;;25.59
80246;BMP280;69558;39.208;-77.226;2023-07-16T04:28:06;99675.75;;;25.52
80246;BMP280;69558;39.208;-77.226;2023-07-16T04:30:32;99679.69;;;25.50
80246;BMP280;69558;39.208;-77.226;2023-07-16T04:32:57;99691.44;;;25.54
80246;BMP280;69558;39.208;-77.226;2023-07-16T04:35:24;99675.44;;;25.49
80246;BMP280;69558;39.208;-77.226;2023-07-16T04:37:50;99687.78;;;25.60
80246;BMP280;69558;39.208;-77.226;2023-07-16T04:40:16;99665.97;;;25.58
80246;BMP280;69558;39.208;-77.226;2023-07-16T04:42:41;99678.81;;;25.66
80246;BMP280;69558;39.208;-77.226;2023-07-16T04:45:08;99660.94;;;25.56
80246;BMP280;69558;39.208;-77.226;2023-07-16T04:47:34;99682.78;;;25.68
80246;BMP280;69558;39.208;-77.226;2023-07-16T04:50:00;99678.81;;;25.66
80246;BMP280;69558;39.208;-77.226;2023-07-16T04:52:26;99688.38;;;25.67
80246;BMP280;69558;39.208;-77.226;2023-07-16T04:54:52;99688.31;;;25.62
80246;BMP280;69558;39.208;-77.226;2023-07-16T04:57:20;99690.75;;;25.68
80246;BMP280;69558;39.208;-77.226;2023-07-16T04:59:47;99683.31;;;25.65
80246;BMP280;69558;39.208;-77.226;2023-07-16T05:02:14;99692.38;;;25.69
80246;BMP280;69558;39.208;-77.226;2023-07-16T05:04:42;99687.09;;;25.69
80246;BMP280;69558;39.208;-77.226;2023-07-16T05:07:14;99679.13;;;25.69
80246;BMP280;69558;39.208;-77.226;2023-07-16T05:09:40;99670.03;;;25.65
80246;BMP280;69558;39.208;-77.226;2023-07-16T05:12:06;99684.69;;;25.73
80246;BMP280;69558;39.208;-77.226;2023-07-16T05:14:43;99674.59;;;25.70
80246;BMP280;69558;39.208;-77.226;2023-07-16T05:17:10;99677.25;;;25.70
80246;BMP280;69558;39.208;-77.226;2023-07-16T05:19:36;99677.47;;;25.68
80246;BMP280;69558;39.208;-77.226;2023-07-16T05:22:02;99676.16;;;25.71
80246;BMP280;69558;39.208;-77.226;2023-07-16T05:24:28;99673.53;;;25.71
80246;BMP280;69558;39.208;-77.226;2023-07-16T05:26:54;99681.78;;;25.69
80246;BMP280;69558;39.208;-77.226;2023-07-16T05:29:21;99653.19;;;25.55
80246;BMP280;69558;39.208;-77.226;2023-07-16T05:31:47;99682.56;;;25.70
80246;BMP280;69558;39.208;-77.226;2023-07-16T05:34:13;99679.03;;;25.64
80246;BMP280;69558;39.208;-77.226;2023-07-16T05:36:41;99699.31;;;25.70
80246;BMP280;69558;39.208;-77.226;2023-07-16T05:39:07;99696.66;;;25.70
80246;BMP280;69558;39.208;-77.226;2023-07-16T05:41:34;99685.22;;;25.70
80246;BMP280;69558;39.208;-77.226;2023-07-16T05:44:01;99680.19;;;25.73
80246;BMP280;69558;39.208;-77.226;2023-07-16T05:46:28;99670.63;;;25.72
80246;BMP280;69558;39.208;-77.226;2023-07-16T05:48:54;99672.16;;;25.68
80246;BMP280;69558;39.208;-77.226;2023-07-16T05:51:20;99641.63;;;25.66
80246;BMP280;69558;39.208;-77.226;2023-07-16T05:53:47;99633.94;;;25.69
80246;BMP280;69558;39.208;-77.226;2023-07-16T05:56:13;99623.25;;;25.64
80246;BMP280;69558;39.208;-77.226;2023-07-16T05:58:40;99621.16;;;25.66
80246;BMP280;69558;39.208;-77.226;2023-07-16T06:01:06;99619.00;;;25.63
80246;BMP280;69558;39.208;-77.226;2023-07-16T06:03:32;99614.25;;;25.65
80246;BMP280;69558;39.208;-77.226;2023-07-16T06:05:58;99608.69;;;25.67
80246;BMP280;69558;39.208;-77.226;2023-07-16T06:08:25;99583.31;;;25.54
80246;BMP280;69558;39.208;-77.226;2023-07-16T06:10:52;99590.09;;;25.67
80246;BMP280;69558;39.208;-77.226;2023-07-16T06:13:17;99589.81;;;25.68
80246;BMP280;69558;39.208;-77.226;2023-07-16T06:15:45;99589.81;;;25.68
80246;BMP280;69558;39.208;-77.226;2023-07-16T06:18:12;99586.34;;;25.68
80246;BMP280;69558;39.208;-77.226;2023-07-16T06:20:38;99590.09;;;25.67
80246;BMP280;69558;39.208;-77.226;2023-07-16T06:23:04;99584.22;;;25.65
80246;BMP280;69558;39.208;-77.226;2023-07-16T06:25:30;99581.03;;;25.68
80246;BMP280;69558;39.208;-77.226;2023-07-16T06:27:56;99570.41;;;25.63
80246;BMP280;69558;39.208;-77.226;2023-07-16T06:30:22;99576.53;;;25.68
80246;BMP280;69558;39.208;-77.226;2023-07-16T06:32:47;99573.06;;;25.68
80246;BMP280;69558;39.208;-77.226;2023-07-16T06:35:14;99573.34;;;25.66
80246;BMP280;69558;39.208;-77.226;2023-07-16T06:37:39;99562.97;;;25.60
80246;BMP280;69558;39.208;-77.226;2023-07-16T06:40:06;99561.41;;;25.69
80246;BMP280;69558;39.208;-77.226;2023-07-16T06:42:33;99564.03;;;25.64
80246;BMP280;69558;39.208;-77.226;2023-07-16T06:44:59;99567.75;;;25.68
80246;BMP280;69558;39.208;-77.226;2023-07-16T06:47:25;99549.91;;;25.58
80246;BMP280;69558;39.208;-77.226;2023-07-16T06:49:52;99556.63;;;25.66
80246;BMP280;69558;39.208;-77.226;2023-07-16T06:52:21;99552.09;;;25.66
80246;BMP280;69558;39.208;-77.226;2023-07-16T06:54:48;99542.22;;;25.62
80246;BMP280;69558;39.208;-77.226;2023-07-16T06:57:16;99540.13;;;25.64
80246;BMP280;69558;39.208;-77.226;2023-07-16T06:59:42;99536.41;;;25.65
80246;BMP280;69558;39.208;-77.226;2023-07-16T07:02:08;99534.31;;;25.67
80246;BMP280;69558;39.208;-77.226;2023-07-16T07:04:35;99523.94;;;25.65
80246;BMP280;69558;39.208;-77.226;2023-07-16T07:07:01;99526.84;;;25.64
80246;BMP280;69558;39.208;-77.226;2023-07-16T07:09:27;99511.47;;;25.66
80246;BMP280;69558;39.208;-77.226;2023-07-16T07:11:53;99513.06;;;25.67
80246;BMP280;69558;39.208;-77.226;2023-07-16T07:14:20;99506.16;;;25.66
80246;BMP280;69558;39.208;-77.226;2023-07-16T07:16:46;99499.72;;;25.62
80246;BMP280;69558;39.208;-77.226;2023-07-16T07:19:12;99505.34;;;25.65
80246;BMP280;69558;39.208;-77.226;2023-07-16T07:21:37;99518.63;;;25.65
80246;BMP280;69558;39.208;-77.226;2023-07-16T07:24:04;99505.34;;;25.65
80246;BMP280;69558;39.208;-77.226;2023-07-16T07:26:30;99497.13;;;25.67
80246;BMP280;69558;39.208;-77.226;2023-07-16T07:28:56;99496.81;;;25.63
80246;BMP280;69558;39.208;-77.226;2023-07-16T07:31:22;99483.28;;;25.60
80246;BMP280;69558;39.208;-77.226;2023-07-16T07:33:48;99491.25;;;25.65
80246;BMP280;69558;39.208;-77.226;2023-07-16T07:36:14;99497.38;;;25.65
80246;BMP280;69558;39.208;-77.226;2023-07-16T07:38:40;99500.03;;;25.65
80246;BMP280;69558;39.208;-77.226;2023-07-16T07:41:06;99501.88;;;25.60
80246;BMP280;69558;39.208;-77.226;2023-07-16T07:43:32;99485.34;;;25.53
80246;BMP280;69558;39.208;-77.226;2023-07-16T07:45:58;99482.41;;;25.54
80246;BMP280;69558;39.208;-77.226;2023-07-16T07:48:25;99490.44;;;25.64
80246;BMP280;69558;39.208;-77.226;2023-07-16T07:50:50;99489.66;;;25.64
80246;BMP280;69558;39.208;-77.226;2023-07-16T07:53:16;99487.78;;;25.64
80246;BMP280;69558;39.208;-77.226;2023-07-16T07:55:45;99482.19;;;25.61
80246;BMP280;69558;39.208;-77.226;2023-07-16T07:58:11;99479.53;;;25.61
80246;BMP280;69558;39.208;-77.226;2023-07-16T08:00:38;99474.50;;;25.64
80246;BMP280;69558;39.208;-77.226;2023-07-16T08:03:04;99464.97;;;25.68
80246;BMP280;69558;39.208;-77.226;2023-07-16T08:05:30;99467.91;;;25.67
80246;BMP280;69558;39.208;-77.226;2023-07-16T08:07:56;99465.25;;;25.67
80246;BMP280;69558;39.208;-77.226;2023-07-16T08:10:23;99462.84;;;25.65
80246;BMP280;69558;39.208;-77.226;2023-07-16T08:12:50;99463.09;;;25.64
80246;BMP280;69558;39.208;-77.226;2023-07-16T08:15:18;99451.13;;;25.61
80246;BMP280;69558;39.208;-77.226;2023-07-16T08:17:45;99441.81;;;25.59
80246;BMP280;69558;39.208;-77.226;2023-07-16T08:20:12;99451.69;;;25.68
80246;BMP280;69558;39.208;-77.226;2023-07-16T08:22:39;99455.97;;;25.69
80246;BMP280;69558;39.208;-77.226;2023-07-16T08:25:06;99442.38;;;25.61
80246;BMP280;69558;39.208;-77.226;2023-07-16T08:27:32;99447.72;;;25.66
80246;BMP280;69558;39.208;-77.226;2023-07-16T08:29:58;99451.69;;;25.63
80246;BMP280;69558;39.208;-77.226;2023-07-16T08:32:24;99451.69;;;25.63
80246;BMP280;69558;39.208;-77.226;2023-07-16T08:34:50;99427.97;;;25.52
80246;BMP280;69558;39.208;-77.226;2023-07-16T08:37:16;99421.31;;;25.49
80246;BMP280;69558;39.208;-77.226;2023-07-16T08:39:42;99449.81;;;25.64
80246;BMP280;69558;39.208;-77.226;2023-07-16T08:42:09;99431.13;;;25.49
80246;BMP280;69558;39.208;-77.226;2023-07-16T08:44:38;99447.72;;;25.66
80246;BMP280;69558;39.208;-77.226;2023-07-16T08:47:05;99442.09;;;25.57
80246;BMP280;69558;39.208;-77.226;2023-07-16T08:49:34;99457.00;;;25.63
80246;BMP280;69558;39.208;-77.226;2023-07-16T08:52:01;99451.41;;;25.60
80246;BMP280;69558;39.208;-77.226;2023-07-16T08:54:28;99452.72;;;25.62
80246;BMP280;69558;39.208;-77.226;2023-07-16T08:56:54;99455.13;;;25.64
80246;BMP280;69558;39.208;-77.226;2023-07-16T08:59:20;99457.00;;;25.63
80246;BMP280;69558;39.208;-77.226;2023-07-16T09:01:47;99449.28;;;25.62
80246;BMP280;69558;39.208;-77.226;2023-07-16T09:04:15;99456.44;;;25.61
80246;BMP280;69558;39.208;-77.226;2023-07-16T09:06:41;99459.09;;;25.61
80246;BMP280;69558;39.208;-77.226;2023-07-16T09:09:20;99455.38;;;25.62
80246;BMP280;69558;39.208;-77.226;2023-07-16T09:11:47;99448.22;;;25.63
80246;BMP280;69558;39.208;-77.226;2023-07-16T09:14:18;99431.94;;;25.49
80246;BMP280;69558;39.208;-77.226;2023-07-16T09:16:52;99432.75;;;25.55
80246;BMP280;69558;39.208;-77.226;2023-07-16T09:19:18;99451.94;;;25.62
80246;BMP280;69558;39.208;-77.226;2023-07-16T09:21:49;99452.72;;;25.62
80246;BMP280;69558;39.208;-77.226;2023-07-16T09:24:16;99448.78;;;25.65
80246;BMP280;69558;39.208;-77.226;2023-07-16T09:26:54;99446.91;;;25.65
80246;BMP280;69558;39.208;-77.226;2023-07-16T09:29:21;99439.16;;;25.54
80246;BMP280;69558;39.208;-77.226;2023-07-16T09:31:56;99450.06;;;25.62
80246;BMP280;69558;39.208;-77.226;2023-07-16T09:34:22;99451.69;;;25.63
80246;BMP280;69558;39.208;-77.226;2023-07-16T09:36:50;99460.94;;;25.61
80246;BMP280;69558;39.208;-77.226;2023-07-16T09:39:18;99450.31;;;25.61
80246;BMP280;69558;39.208;-77.226;2023-07-16T09:41:50;99459.38;;;25.60
80246;BMP280;69558;39.208;-77.226;2023-07-16T09:44:17;99475.59;;;25.63
80246;BMP280;69558;39.208;-77.226;2023-07-16T09:46:44;99476.38;;;25.64
80246;BMP280;69558;39.208;-77.226;2023-07-16T09:49:10;99484.09;;;25.60
80246;BMP280;69558;39.208;-77.226;2023-07-16T09:51:38;99480.63;;;25.60
80246;BMP280;69558;39.208;-77.226;2023-07-16T09:54:04;99476.34;;;25.59
80246;BMP280;69558;39.208;-77.226;2023-07-16T09:56:51;99482.19;;;25.61
80246;BMP280;69558;39.208;-77.226;2023-07-16T09:59:22;99473.19;;;25.62
80246;BMP280;69558;39.208;-77.226;2023-07-16T10:01:48;99472.38;;;25.56
80246;BMP280;69558;39.208;-77.226;2023-07-16T10:04:16;99465.44;;;25.50
80246;BMP280;69558;39.208;-77.226;2023-07-16T10:06:50;99485.66;;;25.61
80246;BMP280;69558;39.208;-77.226;2023-07-16T10:09:39;99488.59;;;25.60
80246;BMP280;69558;39.208;-77.226;2023-07-16T10:14:45;99500.78;;;25.61
80246;BMP280;69558;39.208;-77.226;2023-07-16T10:17:19;99497.09;;;25.62
80246;BMP280;69558;39.208;-77.226;2023-07-16T10:19:50;99486.16;;;25.53
80246;BMP280;69558;39.208;-77.226;2023-07-16T10:25:22;99504.75;;;25.58
80246;BMP280;69558;39.208;-77.226;2023-07-16T10:27:51;99509.25;;;25.58
80246;BMP280;69558;39.208;-77.226;2023-07-16T10:30:18;99497.81;;;25.52
80246;BMP280;69558;39.208;-77.226;2023-07-16T10:32:45;99499.88;;;25.45
80246;BMP280;69558;39.208;-77.226;2023-07-16T10:35:12;99526.78;;;25.59
80246;BMP280;69558;39.208;-77.226;2023-07-16T10:37:40;99535.56;;;25.59
80246;BMP280;69558;39.208;-77.226;2023-07-16T10:40:10;99542.72;;;25.59
80246;BMP280;69558;39.208;-77.226;2023-07-16T10:42:36;99540.63;;;25.61
80246;BMP280;69558;39.208;-77.226;2023-07-16T10:45:04;99555.00;;;25.60
80246;BMP280;69558;39.208;-77.226;2023-07-16T10:47:35;99556.31;;;25.62
80246;BMP280;69558;39.208;-77.226;2023-07-16T10:50:09;99526.22;;;25.47
80246;BMP280;69558;39.208;-77.226;2023-07-16T10:52:36;99552.34;;;25.60
80246;BMP280;69558;39.208;-77.226;2023-07-16T10:55:05;99548.78;;;25.54
80246;BMP280;69558;39.208;-77.226;2023-07-16T10:57:32;99556.81;;;25.59
80246;BMP280;69558;39.208;-77.226;2023-07-16T10:59:59;99563.47;;;25.62
80246;BMP280;69558;39.208;-77.226;2023-07-16T11:02:26;99544.28;;;25.55
80246;BMP280;69558;39.208;-77.226;2023-07-16T11:04:53;99554.16;;;25.59
80246;BMP280;69558;39.208;-77.226;2023-07-16T11:07:21;99552.34;;;25.60
80246;BMP280;69558;39.208;-77.226;2023-07-16T11:09:52;99550.69;;;25.59
80246;BMP280;69558;39.208;-77.226;2023-07-16T11:12:20;99545.38;;;25.54
80246;BMP280;69558;39.208;-77.226;2023-07-16T11:14:49;99548.59;;;25.56
80246;BMP280;69558;39.208;-77.226;2023-07-16T11:17:16;99545.66;;;25.57
80246;BMP280;69558;39.208;-77.226;2023-07-16T11:19:46;99555.00;;;25.60
80246;BMP280;69558;39.208;-77.226;2023-07-16T11:22:14;99555.78;;;25.60
80246;BMP280;69558;39.208;-77.226;2023-07-16T11:24:42;99549.88;;;25.53
80246;BMP280;69558;39.208;-77.226;2023-07-16T11:27:31;99551.44;;;25.49
80246;BMP280;69558;39.208;-77.226;2023-07-16T11:29:58;99566.13;;;25.57
80246;BMP280;69558;39.208;-77.226;2023-07-16T11:32:42;99570.34;;;25.58
80246;BMP280;69558;39.208;-77.226;2023-07-16T11:35:15;99572.47;;;25.56
80246;BMP280;69558;39.208;-77.226;2023-07-16T11:37:41;99553.84;;;25.51
80246;BMP280;69558;39.208;-77.226;2023-07-16T11:40:09;99568.50;;;25.58
80246;BMP280;69558;39.208;-77.226;2023-07-16T11:42:37;99553.63;;;25.57
80246;BMP280;69558;39.208;-77.226;2023-07-16T11:45:05;99558.16;;;25.57
80246;BMP280;69558;39.208;-77.226;2023-07-16T11:47:31;99554.91;;;25.55
80246;BMP280;69558;39.208;-77.226;2023-07-16T11:49:57;99555.50;;;25.57
80246;BMP280;69558;39.208;-77.226;2023-07-16T11:52:27;99551.25;;;25.56
80246;BMP280;69558;39.208;-77.226;2023-07-16T11:54:56;99548.59;;;25.56
80246;BMP280;69558;39.208;-77.226;2023-07-16T11:57:25;99553.63;;;25.57
80246;BMP280;69558;39.208;-77.226;2023-07-16T11:59:51;99545.13;;;25.55
80246;BMP280;69558;39.208;-77.226;2023-07-16T12:02:17;99530.72;;;25.46
80246;BMP280;69558;39.208;-77.226;2023-07-16T12:04:44;99547.78;;;25.55
80246;BMP280;69558;39.208;-77.226;2023-07-16T12:07:09;99533.31;;;25.41
80246;BMP280;69558;39.208;-77.226;2023-07-16T12:09:35;99525.84;;;25.38
80246;BMP280;69558;39.208;-77.226;2023-07-16T12:12:01;99552.25;;;25.50
80246;BMP280;69558;39.208;-77.226;2023-07-16T12:14:28;99559.34;;;25.44
80246;BMP280;69558;39.208;-77.226;2023-07-16T12:16:54;99563.59;;;25.45
80246;BMP280;69558;39.208;-77.226;2023-07-16T12:19:22;99567.63;;;25.48
80246;BMP280;69558;39.208;-77.226;2023-07-16T12:21:48;99569.97;;;25.44
80246;BMP280;69558;39.208;-77.226;2023-07-16T12:24:16;99571.00;;;25.38
80246;BMP280;69558;39.208;-77.226;2023-07-16T12:26:43;99565.09;;;25.31
80246;BMP280;69558;39.208;-77.226;2023-07-16T12:29:09;99567.53;;;25.38
80246;BMP280;69558;39.208;-77.226;2023-07-16T12:31:37;99575.56;;;25.43
80246;BMP280;69558;39.208;-77.226;2023-07-16T12:34:02;99576.09;;;25.45
80246;BMP280;69558;39.208;-77.226;2023-07-16T12:36:30;99581.16;;;25.46
80246;BMP280;69558;39.208;-77.226;2023-07-16T12:38:57;99572.94;;;25.48
80246;BMP280;69558;39.208;-77.226;2023-07-16T12:41:23;99578.78;;;25.50
80246;BMP280;69558;39.208;-77.226;2023-07-16T12:43:50;99582.28;;;25.50
80246;BMP280;69558;39.208;-77.226;2023-07-16T12:46:16;99595.28;;;25.52
80246;BMP280;69558;39.208;-77.226;2023-07-16T12:48:41;99587.63;;;25.55
80246;BMP280;69558;39.208;-77.226;2023-07-16T12:51:08;99574.31;;;25.50
80246;BMP280;69558;39.208;-77.226;2023-07-16T12:53:33;99582.31;;;25.55
80246;BMP280;69558;39.208;-77.226;2023-07-16T12:56:00;99572.97;;;25.53
80246;BMP280;69558;39.208;-77.226;2023-07-16T12:58:26;99589.22;;;25.56
80246;BMP280;69558;39.208;-77.226;2023-07-16T13:00:52;99588.41;;;25.56
80246;BMP280;69558;39.208;-77.226;2023-07-16T13:03:18;99596.13;;;25.57
80246;BMP280;69558;39.208;-77.226;2023-07-16T13:05:45;99589.22;;;25.56
80246;BMP280;69558;39.208;-77.226;2023-07-16T13:08:12;99582.31;;;25.55
80246;BMP280;69558;39.208;-77.226;2023-07-16T13:10:40;99588.16;;;25.57
80246;BMP280;69558;39.208;-77.226;2023-07-16T13:13:08;99568.13;;;25.45
80246;BMP280;69558;39.208;-77.226;2023-07-16T13:15:34;99569.75;;;25.46
80246;BMP280;69558;39.208;-77.226;2023-07-16T13:18:02;99587.38;;;25.57
80246;BMP280;69558;39.208;-77.226;2023-07-16T13:20:30;99581.78;;;25.58
80246;BMP280;69558;39.208;-77.226;2023-07-16T13:22:57;99572.47;;;25.56
80246;BMP280;69558;39.208;-77.226;2023-07-16T13:25:23;99553.50;;;25.42
80246;BMP280;69558;39.208;-77.226;2023-07-16T13:27:50;99579.34;;;25.52
80246;BMP280;69558;39.208;-77.226;2023-07-16T13:30:18;99584.13;;;25.55
80246;BMP280;69558;39.208;-77.226;2023-07-16T13:32:44;99577.50;;;25.52
80246;BMP280;69558;39.208;-77.226;2023-07-16T13:35:10;99575.94;;;25.56
80246;BMP280;69558;39.208;-77.226;2023-07-16T13:37:36;99582.06;;;25.57
80246;BMP280;69558;39.208;-77.226;2023-07-16T13:40:02;99571.94;;;25.54
80246;BMP280;69558;39.208;-77.226;2023-07-16T13:42:29;99570.03;;;25.54
80246;BMP280;69558;39.208;-77.226;2023-07-16T13:44:54;99553.06;;;25.50
80246;BMP280;69558;39.208;-77.226;2023-07-16T13:47:20;99566.63;;;25.54
80246;BMP280;69558;39.208;-77.226;2023-07-16T13:49:46;99552.00;;;25.51
80246;BMP280;69558;39.208;-77.226;2023-07-16T13:52:13;99558.66;;;25.54
80246;BMP280;69558;39.208;-77.226;2023-07-16T13:54:40;99567.16;;;25.56
80246;BMP280;69558;39.208;-77.226;2023-07-16T13:57:06;99570.31;;;25.53
80246;BMP280;69558;39.208;-77.226;2023-07-16T13:59:32;99559.94;;;25.51
80246;BMP280;69558;39.208;-77.226;2023-07-16T14:02:00;99557.03;;;25.53